sensor_id;sensor_type;location;lat;lon;timestamp;pressure;altitude;pressure_sealevel;temperature;humidity
12203;BME280;6164;42.178;24.622;2022-12-07T00:01:19;99889.66;;;5.36;100.00
12203;BME280;6164;42.178;24.622;2022-12-07T00:03:47;99891.44;;;5.36;100.00
12203;BME280;6164;42.178;24.622;2022-12-07T00:06:14;99885.38;;;5.35;100.00
12203;BME280;6164;42.178;24.622;2022-12-07T00:08:41;99893.50;;;5.32;100.00
12203;BME280;6164;42.178;24.622;2022-12-07T00:11:10;99901.03;;;5.26;100.00
12203;BME280;6164;42.178;24.622;2022-12-07T00:13:37;99901.72;;;5.28;100.00
12203;BME280;6164;42.178;24.622;2022-12-07T00:16:04;99894.47;;;5.31;100.00
12203;BME280;6164;42.178;24.622;2022-12-07T00:18:31;99899.56;;;5.33;100.00
12203;BME280;6164;42.178;24.622;2022-12-07T00:21:01;99892.91;;;5.29;100.00
12203;BME280;6164;42.178;24.622;2022-12-07T00:23:28;99893.34;;;5.34;100.00
12203;BME280;6164;42.178;24.622;2022-12-07T00:25:55;99897.41;;;5.38;100.00
12203;BME280;6164;42.178;24.622;2022-12-07T00:28:22;99897.53;;;5.36;100.00
12203;BME280;6164;42.178;24.622;2022-12-07T00:30:49;99897.66;;;5.35;100.00
12203;BME280;6164;42.178;24.622;2022-12-07T00:33:15;99889.22;;;5.31;100.00
12203;BME280;6164;42.178;24.622;2022-12-07T00:35:42;99899.13;;;5.28;100.00
12203;BME280;6164;42.178;24.622;2022-12-07T00:38:08;99896.19;;;5.21;100.00
12203;BME280;6164;42.178;24.622;2022-12-07T00:40:35;99893.09;;;5.16;100.00
12203;BME280;6164;42.178;24.622;2022-12-07T00:43:01;99889.06;;;5.12;100.00
12203;BME280;6164;42.178;24.622;2022-12-07T00:45:29;99887.22;;;5.03;100.00
12203;BME280;6164;42.178;24.622;2022-12-07T00:47:56;99889.53;;;4.97;100.00
12203;BME280;6164;42.178;24.622;2022-12-07T00:50:22;99887.97;;;4.94;100.00
12203;BME280;6164;42.178;24.622;2022-12-07T00:52:49;99883.84;;;4.92;100.00
12203;BME280;6164;42.178;24.622;2022-12-07T00:55:15;99882.06;;;4.92;100.00
12203;BME280;6164;42.178;24.622;2022-12-07T00:57:42;99884.81;;;4.91;100.00
12203;BME280;6164;42.178;24.622;2022-12-07T01:00:08;99887.28;;;4.92;100.00
12203;BME280;6164;42.178;24.622;2022-12-07T01:02:36;99886.44;;;4.92;100.00
12203;BME280;6164;42.178;24.622;2022-12-07T01:05:03;99887.97;;;4.94;100.00
12203;BME280;6164;42.178;24.622;2022-12-07T01:07:29;99885.34;;;4.94;100.00
12203;BME280;6164;42.178;24.622;2022-12-07T01:09:56;99877.28;;;4.97;100.00
12203;BME280;6164;42.178;24.622;2022-12-07T01:12:22;99878.94;;;4.98;100.00
12203;BME280;6164;42.178;24.622;2022-12-07T01:14:49;99875.59;;;4.96;100.00
12203;BME280;6164;42.178;24.622;2022-12-07T01:17:16;99870.25;;;4.98;100.00
12203;BME280;6164;42.178;24.622;2022-12-07T01:19:44;99862.38;;;4.98;100.00
12203;BME280;6164;42.178;24.622;2022-12-07T01:22:10;99863.34;;;4.97;100.00
12203;BME280;6164;42.178;24.622;2022-12-07T01:24:36;99862.66;;;4.95;100.00
12203;BME280;6164;42.178;24.622;2022-12-07T01:27:03;99856.03;;;4.91;100.00
12203;BME280;6164;42.178;24.622;2022-12-07T01:29:29;99859.31;;;4.93;100.00
12203;BME280;6164;42.178;24.622;2022-12-07T01:31:56;99858.13;;;4.97;100.00
12203;BME280;6164;42.178;24.622;2022-12-07T01:34:22;99857.88;;;5.00;100.00
12203;BME280;6164;42.178;24.622;2022-12-07T01:36:50;99857.59;;;5.03;100.00
12203;BME280;6164;42.178;24.622;2022-12-07T01:39:17;99861.78;;;5.05;100.00
12203;BME280;6164;42.178;24.622;2022-12-07T01:41:43;99855.31;;;5.09;100.00
12203;BME280;6164;42.178;24.622;2022-12-07T01:44:12;99847.19;;;5.12;100.00
12203;BME280;6164;42.178;24.622;2022-12-07T01:46:38;99847.72;;;5.06;100.00
12203;BME280;6164;42.178;24.622;2022-12-07T01:49:06;99840.06;;;5.14;100.00
12203;BME280;6164;42.178;24.622;2022-12-07T01:51:34;99842.28;;;5.19;100.00
12203;BME280;6164;42.178;24.622;2022-12-07T01:54:02;99837.88;;;5.19;100.00
12203;BME280;6164;42.178;24.622;2022-12-07T01:56:28;99832.78;;;5.18;100.00
12203;BME280;6164;42.178;24.622;2022-12-07T01:58:55;99838.22;;;5.05;100.00
12203;BME280;6164;42.178;24.622;2022-12-07T02:01:23;99837.06;;;4.98;100.00
12203;BME280;6164;42.178;24.622;2022-12-07T02:03:49;99837.97;;;5.08;100.00
12203;BME280;6164;42.178;24.622;2022-12-07T02:06:16;99834.25;;;5.11;100.00
12203;BME280;6164;42.178;24.622;2022-12-07T02:08:44;99831.50;;;5.12;100.00
12203;BME280;6164;42.178;24.622;2022-12-07T02:11:12;99821.03;;;5.12;100.00
12203;BME280;6164;42.178;24.622;2022-12-07T02:13:39;99825.06;;;5.16;100.00
12203;BME280;6164;42.178;24.622;2022-12-07T02:16:09;99824.22;;;5.16;100.00
12203;BME280;6164;42.178;24.622;2022-12-07T02:18:44;99824.53;;;5.22;100.00
12203;BME280;6164;42.178;24.622;2022-12-07T02:21:16;99814.06;;;5.22;100.00
12203;BME280;6164;42.178;24.622;2022-12-07T02:23:51;99810.38;;;5.25;100.00
12203;BME280;6164;42.178;24.622;2022-12-07T02:26:32;99813.81;;;5.25;100.00
12203;BME280;6164;42.178;24.622;2022-12-07T02:29:14;99811.59;;;5.21;100.00
12203;BME280;6164;42.178;24.622;2022-12-07T02:31:46;99819.19;;;5.24;100.00
12203;BME280;6164;42.178;24.622;2022-12-07T02:34:18;99815.63;;;5.25;100.00
12203;BME280;6164;42.178;24.622;2022-12-07T02:36:48;99809.28;;;5.27;100.00
12203;BME280;6164;42.178;24.622;2022-12-07T02:39:17;99805.59;;;5.30;100.00
12203;BME280;6164;42.178;24.622;2022-12-07T02:41:46;99808.06;;;5.31;100.00
12203;BME280;6164;42.178;24.622;2022-12-07T02:44:16;99806.41;;;5.30;100.00
12203;BME280;6164;42.178;24.622;2022-12-07T02:46:44;99810.56;;;5.33;100.00
12203;BME280;6164;42.178;24.622;2022-12-07T02:49:12;99803.56;;;5.33;100.00
12203;BME280;6164;42.178;24.622;2022-12-07T02:51:40;99797.34;;;5.34;100.00
12203;BME280;6164;42.178;24.622;2022-12-07T02:54:09;99797.34;;;5.34;100.00
12203;BME280;6164;42.178;24.622;2022-12-07T02:56:39;99797.78;;;5.39;100.00
12203;BME280;6164;42.178;24.622;2022-12-07T02:59:12;99798.34;;;5.43;100.00
12203;BME280;6164;42.178;24.622;2022-12-07T03:01:46;99786.47;;;5.39;100.00
12203;BME280;6164;42.178;24.622;2022-12-07T03:04:19;99782.59;;;5.33;100.00
12203;BME280;6164;42.178;24.622;2022-12-07T03:06:51;99793.72;;;5.26;100.00
12203;BME280;6164;42.178;24.622;2022-12-07T03:09:20;99794.06;;;5.12;100.00
12203;BME280;6164;42.178;24.622;2022-12-07T03:11:49;99787.00;;;5.12;100.00
12203;BME280;6164;42.178;24.622;2022-12-07T03:14:18;99800.63;;;5.06;100.00
12203;BME280;6164;42.178;24.622;2022-12-07T03:16:49;99801.00;;;5.02;100.00
12203;BME280;6164;42.178;24.622;2022-12-07T03:19:18;99801.28;;;4.99;100.00
12203;BME280;6164;42.178;24.622;2022-12-07T03:21:47;99810.31;;;4.95;100.00
12203;BME280;6164;42.178;24.622;2022-12-07T03:24:17;99805.16;;;5.04;100.00
12203;BME280;6164;42.178;24.622;2022-12-07T03:26:46;99802.16;;;5.09;100.00
12203;BME280;6164;42.178;24.622;2022-12-07T03:29:24;99809.75;;;5.12;100.00
12203;BME280;6164;42.178;24.622;2022-12-07T03:31:54;99811.16;;;5.16;100.00
12203;BME280;6164;42.178;24.622;2022-12-07T03:34:25;99802.94;;;5.20;100.00
12203;BME280;6164;42.178;24.622;2022-12-07T03:36:55;99796.59;;;5.23;100.00
12203;BME280;6164;42.178;24.622;2022-12-07T03:39:24;99804.88;;;5.28;100.00
12203;BME280;6164;42.178;24.622;2022-12-07T03:41:52;99799.38;;;5.31;100.00
12203;BME280;6164;42.178;24.622;2022-12-07T03:44:19;99798.31;;;5.33;100.00
12203;BME280;6164;42.178;24.622;2022-12-07T03:46:48;99804.50;;;5.32;100.00
12203;BME280;6164;42.178;24.622;2022-12-07T03:49:21;99796.91;;;5.29;100.00
12203;BME280;6164;42.178;24.622;2022-12-07T03:51:51;99791.66;;;5.29;100.00
12203;BME280;6164;42.178;24.622;2022-12-07T03:54:21;99798.53;;;5.30;100.00
12203;BME280;6164;42.178;24.622;2022-12-07T03:56:49;99800.22;;;5.31;100.00
12203;BME280;6164;42.178;24.622;2022-12-07T03:59:17;99807.38;;;5.29;100.00
12203;BME280;6164;42.178;24.622;2022-12-07T04:01:43;99807.38;;;5.29;100.00
12203;BME280;6164;42.178;24.622;2022-12-07T04:04:10;99796.19;;;5.27;100.00
12203;BME280;6164;42.178;24.622;2022-12-07T04:06:38;99795.38;;;5.27;100.00
12203;BME280;6164;42.178;24.622;2022-12-07T04:09:04;99791.34;;;5.23;100.00
12203;BME280;6164;42.178;24.622;2022-12-07T04:11:31;99784.72;;;5.19;100.00
12203;BME280;6164;42.178;24.622;2022-12-07T04:13:58;99780.00;;;5.13;100.00
12203;BME280;6164;42.178;24.622;2022-12-07T04:16:42;99773.13;;;5.12;100.00
12203;BME280;6164;42.178;24.622;2022-12-07T04:19:08;99771.72;;;5.08;100.00
12203;BME280;6164;42.178;24.622;2022-12-07T04:21:35;99770.78;;;5.09;100.00
12203;BME280;6164;42.178;24.622;2022-12-07T04:24:03;99767.44;;;5.07;100.00
12203;BME280;6164;42.178;24.622;2022-12-07T04:26:32;99764.13;;;5.05;100.00
12203;BME280;6164;42.178;24.622;2022-12-07T04:28:59;99766.03;;;5.03;100.00
12203;BME280;6164;42.178;24.622;2022-12-07T04:31:25;99767.84;;;5.02;100.00
12203;BME280;6164;42.178;24.622;2022-12-07T04:33:52;99765.41;;;4.90;100.00
12203;BME280;6164;42.178;24.622;2022-12-07T04:36:18;99767.75;;;4.93;100.00
12203;BME280;6164;42.178;24.622;2022-12-07T04:38:45;99768.34;;;4.96;100.00
12203;BME280;6164;42.178;24.622;2022-12-07T04:41:13;99769.31;;;4.95;100.00
12203;BME280;6164;42.178;24.622;2022-12-07T04:43:40;99766.13;;;4.92;100.00
12203;BME280;6164;42.178;24.622;2022-12-07T04:46:06;99769.94;;;4.88;100.00
12203;BME280;6164;42.178;24.622;2022-12-07T04:48:33;99769.25;;;4.86;100.00
12203;BME280;6164;42.178;24.622;2022-12-07T04:50:59;99769.34;;;4.84;100.00
12203;BME280;6164;42.178;24.622;2022-12-07T04:53:26;99768.53;;;4.84;100.00
12203;BME280;6164;42.178;24.622;2022-12-07T04:55:52;99770.84;;;4.77;100.00
12203;BME280;6164;42.178;24.622;2022-12-07T04:58:20;99775.56;;;4.63;100.00
12203;BME280;6164;42.178;24.622;2022-12-07T05:00:46;99785.91;;;4.53;100.00
12203;BME280;6164;42.178;24.622;2022-12-07T05:03:13;99776.56;;;4.51;100.00
12203;BME280;6164;42.178;24.622;2022-12-07T05:05:40;99779.88;;;4.53;100.00
12203;BME280;6164;42.178;24.622;2022-12-07T05:08:06;99778.06;;;4.53;100.00
12203;BME280;6164;42.178;24.622;2022-12-07T05:10:33;99784.00;;;4.55;100.00
12203;BME280;6164;42.178;24.622;2022-12-07T05:13:00;99779.38;;;4.59;100.00
12203;BME280;6164;42.178;24.622;2022-12-07T05:15:28;99781.84;;;4.60;100.00
12203;BME280;6164;42.178;24.622;2022-12-07T05:17:54;99780.88;;;4.61;100.00
12203;BME280;6164;42.178;24.622;2022-12-07T05:20:21;99787.91;;;4.61;100.00
12203;BME280;6164;42.178;24.622;2022-12-07T05:22:47;99788.19;;;4.58;100.00
12203;BME280;6164;42.178;24.622;2022-12-07T05:25:13;99789.94;;;4.57;100.00
12203;BME280;6164;42.178;24.622;2022-12-07T05:27:40;99783.19;;;4.55;100.00
12203;BME280;6164;42.178;24.622;2022-12-07T05:30:07;99787.59;;;4.54;100.00
12203;BME280;6164;42.178;24.622;2022-12-07T05:32:35;99793.63;;;4.55;100.00
12203;BME280;6164;42.178;24.622;2022-12-07T05:35:01;99784.84;;;4.56;100.00
12203;BME280;6164;42.178;24.622;2022-12-07T05:37:28;99792.31;;;4.60;100.00
12203;BME280;6164;42.178;24.622;2022-12-07T05:39:54;99793.03;;;4.62;100.00
12203;BME280;6164;42.178;24.622;2022-12-07T05:42:21;99793.88;;;4.63;100.00
12203;BME280;6164;42.178;24.622;2022-12-07T05:44:47;99793.72;;;4.64;100.00
12203;BME280;6164;42.178;24.622;2022-12-07T05:47:14;99794.53;;;4.65;100.00
12203;BME280;6164;42.178;24.622;2022-12-07T05:49:42;99801.44;;;4.66;100.00
12203;BME280;6164;42.178;24.622;2022-12-07T05:52:08;99797.03;;;4.66;100.00
12203;BME280;6164;42.178;24.622;2022-12-07T05:54:35;99797.28;;;4.63;100.00
12203;BME280;6164;42.178;24.622;2022-12-07T05:57:01;99800.88;;;4.62;100.00
12203;BME280;6164;42.178;24.622;2022-12-07T05:59:28;99805.25;;;4.62;100.00
12203;BME280;6164;42.178;24.622;2022-12-07T06:01:55;99799.31;;;4.60;100.00
12203;BME280;6164;42.178;24.622;2022-12-07T06:04:22;99796.56;;;4.61;100.00
12203;BME280;6164;42.178;24.622;2022-12-07T06:06:51;99806.09;;;4.62;100.00
12203;BME280;6164;42.178;24.622;2022-12-07T06:09:17;99810.34;;;4.63;100.00
12203;BME280;6164;42.178;24.622;2022-12-07T06:11:44;99811.91;;;4.66;100.00
12203;BME280;6164;42.178;24.622;2022-12-07T06:14:28;99807.38;;;4.68;100.00
12203;BME280;6164;42.178;24.622;2022-12-07T06:16:54;99813.44;;;4.68;100.00
12203;BME280;6164;42.178;24.622;2022-12-07T06:19:24;99812.63;;;4.68;100.00
12203;BME280;6164;42.178;24.622;2022-12-07T06:21:52;99805.72;;;4.67;100.00
12203;BME280;6164;42.178;24.622;2022-12-07T06:24:18;99799.53;;;4.68;100.00
12203;BME280;6164;42.178;24.622;2022-12-07T06:26:45;99797.59;;;4.70;100.00
12203;BME280;6164;42.178;24.622;2022-12-07T06:29:12;99802.47;;;4.74;100.00
12203;BME280;6164;42.178;24.622;2022-12-07T06:31:38;99809.94;;;4.79;100.00
12203;BME280;6164;42.178;24.622;2022-12-07T06:34:06;99807.06;;;4.82;100.00
12203;BME280;6164;42.178;24.622;2022-12-07T06:36:33;99809.44;;;4.85;100.00
12203;BME280;6164;42.178;24.622;2022-12-07T06:39:00;99805.75;;;4.87;100.00
12203;BME280;6164;42.178;24.622;2022-12-07T06:41:27;99813.94;;;4.83;100.00
12203;BME280;6164;42.178;24.622;2022-12-07T06:43:53;99812.22;;;4.93;100.00
12203;BME280;6164;42.178;24.622;2022-12-07T06:46:20;99811.88;;;4.97;100.00
12203;BME280;6164;42.178;24.622;2022-12-07T06:48:46;99816.31;;;5.06;100.00
12203;BME280;6164;42.178;24.622;2022-12-07T06:51:13;99814.59;;;4.96;100.00
12203;BME280;6164;42.178;24.622;2022-12-07T06:53:40;99802.28;;;5.07;100.00
12203;BME280;6164;42.178;24.622;2022-12-07T06:56:08;99812.69;;;5.18;100.00
12203;BME280;6164;42.178;24.622;2022-12-07T06:58:34;99816.81;;;5.21;100.00
12203;BME280;6164;42.178;24.622;2022-12-07T07:01:01;99810.88;;;5.19;100.00
12203;BME280;6164;42.178;24.622;2022-12-07T07:03:28;99806.41;;;5.30;100.00
12203;BME280;6164;42.178;24.622;2022-12-07T07:05:54;99813.19;;;5.33;100.00
12203;BME280;6164;42.178;24.622;2022-12-07T07:08:21;99815.94;;;5.31;100.00
12203;BME280;6164;42.178;24.622;2022-12-07T07:10:47;99808.25;;;5.39;100.00
12203;BME280;6164;42.178;24.622;2022-12-07T07:13:15;99813.78;;;5.46;100.00
12203;BME280;6164;42.178;24.622;2022-12-07T07:15:41;99814.31;;;5.40;100.00
12203;BME280;6164;42.178;24.622;2022-12-07T07:18:08;99811.31;;;5.45;100.00
12203;BME280;6164;42.178;24.622;2022-12-07T07:20:35;99811.91;;;5.58;100.00
12203;BME280;6164;42.178;24.622;2022-12-07T07:23:01;99811.53;;;5.72;100.00
12203;BME280;6164;42.178;24.622;2022-12-07T07:25:28;99816.75;;;5.83;100.00
12203;BME280;6164;42.178;24.622;2022-12-07T07:27:54;99812.09;;;5.96;100.00
12203;BME280;6164;42.178;24.622;2022-12-07T07:30:22;99823.28;;;6.07;100.00
12203;BME280;6164;42.178;24.622;2022-12-07T07:32:49;99815.31;;;6.18;100.00
12203;BME280;6164;42.178;24.622;2022-12-07T07:35:15;99815.06;;;6.31;100.00
12203;BME280;6164;42.178;24.622;2022-12-07T07:37:42;99828.06;;;6.42;100.00
12203;BME280;6164;42.178;24.622;2022-12-07T07:40:08;99822.38;;;6.46;100.00
12203;BME280;6164;42.178;24.622;2022-12-07T07:42:35;99830.66;;;6.42;100.00
12203;BME280;6164;42.178;24.622;2022-12-07T07:45:01;99838.53;;;6.42;100.00
12203;BME280;6164;42.178;24.622;2022-12-07T07:47:30;99828.06;;;6.51;100.00
12203;BME280;6164;42.178;24.622;2022-12-07T07:49:56;99821.03;;;6.61;100.00
12203;BME280;6164;42.178;24.622;2022-12-07T07:52:23;99819.66;;;6.77;100.00
12203;BME280;6164;42.178;24.622;2022-12-07T07:54:49;99826.69;;;6.95;100.00
12203;BME280;6164;42.178;24.622;2022-12-07T07:57:16;99819.34;;;7.08;100.00
12203;BME280;6164;42.178;24.622;2022-12-07T07:59:42;99824.13;;;7.22;100.00
12203;BME280;6164;42.178;24.622;2022-12-07T08:02:09;99826.34;;;7.36;100.00
12203;BME280;6164;42.178;24.622;2022-12-07T08:04:41;99822.56;;;7.48;100.00
12203;BME280;6164;42.178;24.622;2022-12-07T08:07:07;99825.03;;;7.59;100.00
12203;BME280;6164;42.178;24.622;2022-12-07T08:09:33;99820.13;;;7.64;100.00
12203;BME280;6164;42.178;24.622;2022-12-07T08:12:00;99823.03;;;7.71;100.00
12203;BME280;6164;42.178;24.622;2022-12-07T08:14:27;99816.34;;;7.76;100.00
12203;BME280;6164;42.178;24.622;2022-12-07T08:16:53;99810.78;;;7.89;100.00
12203;BME280;6164;42.178;24.622;2022-12-07T08:19:20;99812.97;;;7.93;100.00
12203;BME280;6164;42.178;24.622;2022-12-07T08:21:48;99812.31;;;8.09;100.00
12203;BME280;6164;42.178;24.622;2022-12-07T08:24:14;99819.94;;;8.12;100.00
12203;BME280;6164;42.178;24.622;2022-12-07T08:26:41;99817.88;;;8.06;100.00
12203;BME280;6164;42.178;24.622;2022-12-07T08:29:08;99816.41;;;8.21;100.00
12203;BME280;6164;42.178;24.622;2022-12-07T08:31:34;99813.91;;;8.29;100.00
12203;BME280;6164;42.178;24.622;2022-12-07T08:34:01;99816.31;;;8.40;100.00
12203;BME280;6164;42.178;24.622;2022-12-07T08:36:27;99807.06;;;8.54;100.00
12203;BME280;6164;42.178;24.622;2022-12-07T08:38:55;99802.94;;;8.69;100.00
12203;BME280;6164;42.178;24.622;2022-12-07T08:41:22;99802.41;;;8.83;100.00
12203;BME280;6164;42.178;24.622;2022-12-07T08:43:48;99805.84;;;8.83;100.00
12203;BME280;6164;42.178;24.622;2022-12-07T08:46:16;99798.97;;;9.08;100.00
12203;BME280;6164;42.178;24.622;2022-12-07T08:48:46;99791.66;;;9.19;100.00
12203;BME280;6164;42.178;24.622;2022-12-07T08:51:13;99787.22;;;9.20;100.00
12203;BME280;6164;42.178;24.622;2022-12-07T08:53:39;99781.31;;;9.26;100.00
12203;BME280;6164;42.178;24.622;2022-12-07T08:56:08;99771.41;;;9.20;100.00
12203;BME280;6164;42.178;24.622;2022-12-07T08:58:35;99777.72;;;9.27;100.00
12203;BME280;6164;42.178;24.622;2022-12-07T09:01:03;99765.00;;;9.22;100.00
12203;BME280;6164;42.178;24.622;2022-12-07T09:03:30;99767.50;;;9.24;100.00
12203;BME280;6164;42.178;24.622;2022-12-07T09:05:57;99764.53;;;9.27;100.00
12203;BME280;6164;42.178;24.622;2022-12-07T09:08:26;99758.63;;;9.33;100.00
12203;BME280;6164;42.178;24.622;2022-12-07T09:10:53;99761.13;;;9.34;100.00
12203;BME280;6164;42.178;24.622;2022-12-07T09:13:20;99759.56;;;9.50;100.00
12203;BME280;6164;42.178;24.622;2022-12-07T09:15:47;99753.22;;;9.68;100.00
12203;BME280;6164;42.178;24.622;2022-12-07T09:18:14;99747.69;;;9.87;100.00
12203;BME280;6164;42.178;24.622;2022-12-07T09:20:40;99740.63;;;10.04;100.00
12203;BME280;6164;42.178;24.622;2022-12-07T09:23:07;99732.63;;;10.21;100.00
12203;BME280;6164;42.178;24.622;2022-12-07T09:25:33;99727.56;;;10.44;100.00
12203;BME280;6164;42.178;24.622;2022-12-07T09:28:00;99721.28;;;10.61;100.00
12203;BME280;6164;42.178;24.622;2022-12-07T09:30:28;99714.00;;;10.71;100.00
12203;BME280;6164;42.178;24.622;2022-12-07T09:32:55;99709.69;;;10.94;100.00
12203;BME280;6164;42.178;24.622;2022-12-07T09:35:22;99701.91;;;11.01;100.00
12203;BME280;6164;42.178;24.622;2022-12-07T09:37:48;99701.75;;;11.10;100.00
12203;BME280;6164;42.178;24.622;2022-12-07T09:40:15;99691.16;;;11.18;100.00
12203;BME280;6164;42.178;24.622;2022-12-07T09:42:43;99690.31;;;11.26;99.59
12203;BME280;6164;42.178;24.622;2022-12-07T09:45:11;99688.16;;;11.29;99.63
12203;BME280;6164;42.178;24.622;2022-12-07T09:47:41;99693.09;;;11.32;98.90
12203;BME280;6164;42.178;24.622;2022-12-07T09:50:12;99681.53;;;11.33;97.16
12203;BME280;6164;42.178;24.622;2022-12-07T09:52:39;99684.47;;;11.38;96.51
12203;BME280;6164;42.178;24.622;2022-12-07T09:55:09;99680.34;;;11.36;95.08
12203;BME280;6164;42.178;24.622;2022-12-07T09:57:36;99684.28;;;11.48;95.04
12203;BME280;6164;42.178;24.622;2022-12-07T10:00:04;99673.00;;;11.54;94.94
12203;BME280;6164;42.178;24.622;2022-12-07T10:02:35;99685.72;;;11.58;95.27
12203;BME280;6164;42.178;24.622;2022-12-07T10:05:04;99680.94;;;11.54;93.53
12203;BME280;6164;42.178;24.622;2022-12-07T10:07:31;99673.38;;;11.51;94.32
12203;BME280;6164;42.178;24.622;2022-12-07T10:09:58;99673.72;;;11.48;95.23
12203;BME280;6164;42.178;24.622;2022-12-07T10:12:24;99669.56;;;11.45;96.18
12203;BME280;6164;42.178;24.622;2022-12-07T10:14:54;99667.59;;;11.47;95.04
12203;BME280;6164;42.178;24.622;2022-12-07T10:17:29;99661.81;;;11.44;94.49
12203;BME280;6164;42.178;24.622;2022-12-07T10:20:11;99657.72;;;11.41;95.43
12203;BME280;6164;42.178;24.622;2022-12-07T10:22:41;99656.06;;;11.40;94.86
12203;BME280;6164;42.178;24.622;2022-12-07T10:25:21;99651.06;;;11.45;94.58
12203;BME280;6164;42.178;24.622;2022-12-07T10:27:56;99652.34;;;11.57;94.36
12203;BME280;6164;42.178;24.622;2022-12-07T10:30:23;99651.75;;;11.78;93.76
12203;BME280;6164;42.178;24.622;2022-12-07T10:32:50;99659.78;;;11.93;93.71
12203;BME280;6164;42.178;24.622;2022-12-07T10:35:22;99650.41;;;11.82;90.67
12203;BME280;6164;42.178;24.622;2022-12-07T10:37:49;99645.72;;;11.92;91.53
12203;BME280;6164;42.178;24.622;2022-12-07T10:43:02;99637.09;;;12.21;89.20
12203;BME280;6164;42.178;24.622;2022-12-07T10:45:29;99632.78;;;12.20;88.39
12203;BME280;6164;42.178;24.622;2022-12-07T10:47:56;99627.06;;;12.31;89.45
12203;BME280;6164;42.178;24.622;2022-12-07T10:53:33;99635.59;;;12.41;88.03
12203;BME280;6164;42.178;24.622;2022-12-07T10:56:14;99627.34;;;12.36;85.91
12203;BME280;6164;42.178;24.622;2022-12-07T10:58:51;99635.72;;;12.25;86.11
12203;BME280;6164;42.178;24.622;2022-12-07T11:01:22;99630.06;;;12.28;85.97
12203;BME280;6164;42.178;24.622;2022-12-07T11:03:55;99624.41;;;12.31;85.65
12203;BME280;6164;42.178;24.622;2022-12-07T11:06:30;99637.13;;;12.35;86.49
12203;BME280;6164;42.178;24.622;2022-12-07T11:09:08;99616.06;;;12.42;86.53
12203;BME280;6164;42.178;24.622;2022-12-07T11:11:43;99621.28;;;12.50;86.48
12203;BME280;6164;42.178;24.622;2022-12-07T11:14:15;99616.97;;;12.49;85.49
12203;BME280;6164;42.178;24.622;2022-12-07T11:16:51;99618.09;;;12.54;83.06
12203;BME280;6164;42.178;24.622;2022-12-07T11:19:28;99618.56;;;12.58;82.77
12203;BME280;6164;42.178;24.622;2022-12-07T11:21:59;99611.34;;;12.66;82.28
12203;BME280;6164;42.178;24.622;2022-12-07T11:24:32;99602.13;;;12.62;82.48
12203;BME280;6164;42.178;24.622;2022-12-07T11:27:07;99607.78;;;12.59;82.52
12203;BME280;6164;42.178;24.622;2022-12-07T11:32:19;99602.94;;;12.48;84.04
12203;BME280;6164;42.178;24.622;2022-12-07T11:34:51;99594.69;;;12.43;84.36
12203;BME280;6164;42.178;24.622;2022-12-07T11:37:23;99594.53;;;12.45;84.84
12203;BME280;6164;42.178;24.622;2022-12-07T11:39:56;99588.84;;;12.48;84.51
12203;BME280;6164;42.178;24.622;2022-12-07T11:42:26;99588.41;;;12.44;83.78
12203;BME280;6164;42.178;24.622;2022-12-07T11:44:55;99585.47;;;12.39;84.43
12203;BME280;6164;42.178;24.622;2022-12-07T11:47:26;99582.63;;;12.41;85.49
12203;BME280;6164;42.178;24.622;2022-12-07T11:49:58;99578.34;;;12.40;85.44
12203;BME280;6164;42.178;24.622;2022-12-07T11:52:30;99577.44;;;12.47;84.65
12203;BME280;6164;42.178;24.622;2022-12-07T11:55:03;99572.59;;;12.51;84.29
12203;BME280;6164;42.178;24.622;2022-12-07T11:57:33;99568.31;;;12.50;83.78
12203;BME280;6164;42.178;24.622;2022-12-07T12:00:12;99561.47;;;12.55;83.79
12203;BME280;6164;42.178;24.622;2022-12-07T12:02:41;99560.09;;;12.74;83.57
12203;BME280;6164;42.178;24.622;2022-12-07T12:05:12;99552.25;;;12.80;81.88
12203;BME280;6164;42.178;24.622;2022-12-07T12:07:40;99555.16;;;13.00;81.58
12203;BME280;6164;42.178;24.622;2022-12-07T12:10:18;99556.38;;;13.12;80.12
12203;BME280;6164;42.178;24.622;2022-12-07T12:12:54;99553.00;;;13.03;79.60
12203;BME280;6164;42.178;24.622;2022-12-07T12:15:27;99555.16;;;13.00;79.59
12203;BME280;6164;42.178;24.622;2022-12-07T12:18:18;99549.78;;;12.93;79.84
12203;BME280;6164;42.178;24.622;2022-12-07T12:20:51;99552.72;;;12.84;79.06
12203;BME280;6164;42.178;24.622;2022-12-07T12:23:22;99542.84;;;12.78;79.26
12203;BME280;6164;42.178;24.622;2022-12-07T12:25:50;99538.72;;;12.75;79.37
12203;BME280;6164;42.178;24.622;2022-12-07T12:28:20;99529.34;;;12.73;79.44
12203;BME280;6164;42.178;24.622;2022-12-07T12:31:03;99527.69;;;12.72;80.87
12203;BME280;6164;42.178;24.622;2022-12-07T12:33:30;99522.75;;;12.69;81.73
12203;BME280;6164;42.178;24.622;2022-12-07T12:38:47;99517.09;;;12.72;81.53
12203;BME280;6164;42.178;24.622;2022-12-07T12:43:58;99517.91;;;12.72;81.84
12203;BME280;6164;42.178;24.622;2022-12-07T12:46:37;99519.22;;;12.76;81.56
12203;BME280;6164;42.178;24.622;2022-12-07T12:49:30;99514.53;;;12.78;80.93
12203;BME280;6164;42.178;24.622;2022-12-07T12:51:59;99513.16;;;12.82;81.44
12203;BME280;6164;42.178;24.622;2022-12-07T12:54:28;99509.69;;;12.82;82.01
12203;BME280;6164;42.178;24.622;2022-12-07T12:56:55;99511.25;;;12.76;81.55
12203;BME280;6164;42.178;24.622;2022-12-07T12:59:27;99512.25;;;12.75;81.64
12203;BME280;6164;42.178;24.622;2022-12-07T13:01:56;99512.06;;;12.77;80.79
12203;BME280;6164;42.178;24.622;2022-12-07T13:04:24;99512.44;;;12.74;80.97
12203;BME280;6164;42.178;24.622;2022-12-07T13:06:51;99511.97;;;12.70;81.25
12203;BME280;6164;42.178;24.622;2022-12-07T13:09:19;99514.16;;;12.67;81.44
12203;BME280;6164;42.178;24.622;2022-12-07T13:11:48;99521.31;;;12.66;83.70
12203;BME280;6164;42.178;24.622;2022-12-07T13:17:02;99520.84;;;12.63;83.63
12203;BME280;6164;42.178;24.622;2022-12-07T13:22:44;99519.47;;;12.38;82.57
12203;BME280;6164;42.178;24.622;2022-12-07T13:25:18;99515.84;;;12.39;82.63
12203;BME280;6164;42.178;24.622;2022-12-07T13:27:47;99517.84;;;12.37;83.04